Time;durP1;ratioP1;P1;durP2;ratioP2;P2;SDS_P1;SDS_P2;PMS_P1;PMS_P2;Temp;Humidity;BMP_temperature;BMP_pressure;BME280_temperature;BME280_humidity;BME280_pressure;Samples;Min_cycle;Max_cycle;Signal;HPM_P1;HPM_P2
2021/06/06 00:00:44;;;;;;;;;;;;;;;15.08;67.27;99207.14;1690582;84;20163;-88
2021/06/06 00:03:19;;;;;;;;;;;;;;;15.06;68.26;99209.84;1690769;81;20190;-88
2021/06/06 00:05:52;;;;;;;;;;;;;;;15.04;66.55;99211.68;1689975;85;20088;-88
2021/06/06 00:08:20;;;;;;;;;;;;;;;15.02;65.12;99217.88;1690711;85;20111;-88
2021/06/06 00:10:46;;;;;;;;;;;;;;;15.00;67.48;99209.23;1695502;82;20225;-93
2021/06/06 00:13:14;;;;;;;;;;;;;;;15.00;66.60;99214.47;1704187;84;20173;-90
2021/06/06 00:15:43;;;;;;;;;;;;;;;14.99;68.31;99220.17;1706955;84;20106;-87
2021/06/06 00:18:10;;;;;;;;;;;;;;;14.99;66.81;99220.63;1706819;84;20198;-87
2021/06/06 00:20:37;;;;;;;;;;;;;;;14.98;67.26;99234.62;1706957;84;20127;-87
2021/06/06 00:23:04;;;;;;;;;;;;;;;14.95;67.22;99243.46;1706865;84;20163;-88
2021/06/06 00:25:31;;;;;;;;;;;;;;;14.94;62.07;99243.52;1707073;84;20166;-87
2021/06/06 00:27:57;;;;;;;;;;;;;;;14.82;70.68;99241.81;1706727;84;20165;-88
2021/06/06 00:30:24;;;;;;;;;;;;;;;14.83;66.26;99223.87;1706982;84;20150;-89
2021/06/06 00:32:51;;;;;;;;;;;;;;;14.86;66.62;99204.12;1707117;84;20095;-88
2021/06/06 00:35:19;;;;;;;;;;;;;;;14.88;66.78;99197.50;1707092;83;20095;-88
2021/06/06 00:37:45;;;;;;;;;;;;;;;14.89;67.82;99191.36;1706952;84;20448;-88
2021/06/06 00:40:16;;;;;;;;;;;;;;;14.93;69.09;99189.48;1707183;84;20091;-88
2021/06/06 00:42:43;;;;;;;;;;;;;;;14.97;70.14;99196.28;1707284;83;20123;-88
2021/06/06 00:45:13;;;;;;;;;;;;;;;14.97;69.38;99201.05;1707404;83;20206;-87
2021/06/06 00:47:40;;;;;;;;;;;;;;;14.93;69.17;99191.63;1707417;84;20096;-88
2021/06/06 00:50:11;;;;;;;;;;;;;;;14.95;70.06;99181.94;1707511;81;20130;-88
2021/06/06 00:52:38;;;;;;;;;;;;;;;14.97;66.68;99180.58;1707403;79;20147;-88
2021/06/06 00:55:07;;;;;;;;;;;;;;;14.99;69.01;99188.75;1709222;78;21470;-93
2021/06/06 00:57:34;;;;;;;;;;;;;;;15.03;69.15;99185.55;1727226;83;20116;-88
2021/06/06 01:00:23;;;;;;;;;;;;;;;15.05;69.55;99177.17;1721296;82;20105;-92
2021/06/06 01:02:51;;;;;;;;;;;;;;;15.08;68.96;99166.12;1716529;80;20075;-87
2021/06/06 01:05:40;;;;;;;;;;;;;;;15.13;69.54;99171.16;1716767;83;20117;-88
2021/06/06 01:08:11;;;;;;;;;;;;;;;15.16;68.55;99171.47;1728418;83;20105;-89
2021/06/06 01:10:39;;;;;;;;;;;;;;;15.17;68.24;99172.72;1728412;83;20176;-89
2021/06/06 01:13:10;;;;;;;;;;;;;;;15.18;68.11;99173.13;1722723;81;20088;-88
2021/06/06 01:15:39;;;;;;;;;;;;;;;15.20;68.53;99186.14;1715502;82;20104;-88
2021/06/06 01:18:15;;;;;;;;;;;;;;;15.18;69.56;99188.84;1715595;81;20153;-88
2021/06/06 01:20:48;;;;;;;;;;;;;;;14.95;68.10;99163.62;1715547;84;20116;-87
2021/06/06 01:23:29;;;;;;;;;;;;;;;15.07;69.43;99193.67;1715782;84;20129;-89
2021/06/06 01:26:01;;;;;;;;;;;;;;;15.05;68.05;99196.34;1715579;83;20141;-89
2021/06/06 01:28:57;;;;;;;;;;;;;;;15.03;68.40;99203.88;1799428;80;20126;-92
2021/06/06 01:31:24;;;;;;;;;;;;;;;15.00;67.94;99219.70;1803774;79;20128;-90
2021/06/06 01:33:58;;;;;;;;;;;;;;;14.97;70.34;99231.63;1803973;78;20104;-89
2021/06/06 01:36:33;;;;;;;;;;;;;;;14.97;70.37;99242.94;1803830;79;20342;-88
2021/06/06 01:39:05;;;;;;;;;;;;;;;15.02;68.90;99266.31;1777924;80;20143;-88
2021/06/06 01:41:36;;;;;;;;;;;;;;;15.04;68.59;99281.06;1803973;80;20205;-89
2021/06/06 01:44:06;;;;;;;;;;;;;;;15.06;69.41;99255.67;1777329;80;20131;-88
2021/06/06 01:46:40;;;;;;;;;;;;;;;15.09;64.99;99228.50;1803805;78;20104;-88
2021/06/06 01:49:09;;;;;;;;;;;;;;;15.10;69.45;99242.00;1804082;78;20103;-88
2021/06/06 01:51:39;;;;;;;;;;;;;;;15.14;69.46;99230.48;1803892;79;20084;-87
2021/06/06 01:54:10;;;;;;;;;;;;;;;15.17;70.69;99229.03;1777484;80;20076;-88
2021/06/06 01:56:38;;;;;;;;;;;;;;;15.23;72.16;99230.08;1803802;78;20080;-88
2021/06/06 01:59:09;;;;;;;;;;;;;;;15.23;74.59;99232.70;1803819;80;20084;-89
2021/06/06 02:01:38;;;;;;;;;;;;;;;15.26;71.47;99231.27;1801844;80;20151;-88
2021/06/06 02:04:05;;;;;;;;;;;;;;;15.32;73.08;99224.92;1777299;80;20155;-87
2021/06/06 02:06:39;;;;;;;;;;;;;;;15.37;72.50;99219.48;1752491;80;20223;-87
2021/06/06 02:09:09;;;;;;;;;;;;;;;15.42;73.26;99214.88;1803973;80;20119;-88
2021/06/06 02:11:44;;;;;;;;;;;;;;;15.24;74.76;99168.06;1802898;78;20105;-88
2021/06/06 02:14:14;;;;;;;;;;;;;;;15.48;74.89;99186.67;1804015;78;20092;-88
2021/06/06 02:16:45;;;;;;;;;;;;;;;15.50;74.40;99198.39;1803751;78;20127;-87
2021/06/06 02:19:17;;;;;;;;;;;;;;;15.51;74.19;99214.49;1802906;80;20222;-87
2021/06/06 02:21:45;;;;;;;;;;;;;;;15.48;73.43;99230.36;1799963;80;20127;-88
2021/06/06 02:27:22;;;;;;;;;;;;;;;15.36;74.56;99234.79;1705605;84;20125;-92
2021/06/06 02:29:59;;;;;;;;;;;;;;;15.29;74.39;99256.01;1709002;83;20152;-88
2021/06/06 02:33:11;;;;;;;;;;;;;;;15.23;74.52;99282.92;1761746;82;20085;-88
2021/06/06 02:35:44;;;;;;;;;;;;;;;15.11;76.14;99296.90;1747707;81;20136;-89
2021/06/06 02:38:21;;;;;;;;;;;;;;;15.03;76.84;99294.20;1762302;79;20169;-88
2021/06/06 02:41:09;;;;;;;;;;;;;;;14.99;75.52;99292.16;1761745;81;20148;-86
2021/06/06 02:43:48;;;;;;;;;;;;;;;14.97;75.45;99281.36;1761476;79;20108;-87
2021/06/06 02:46:19;;;;;;;;;;;;;;;15.00;75.82;99270.75;1666111;86;20137;-94
2021/06/06 02:48:57;;;;;;;;;;;;;;;15.02;76.08;99246.23;1698150;81;20179;-91
2021/06/06 02:51:27;;;;;;;;;;;;;;;15.07;78.56;99235.56;1712396;81;20418;-92
2021/06/06 02:54:00;;;;;;;;;;;;;;;15.11;78.82;99234.05;1789733;79;20126;-87
2021/06/06 02:56:38;;;;;;;;;;;;;;;15.18;80.65;99235.98;1817722;79;20149;-84
2021/06/06 02:59:39;;;;;;;;;;;;;;;15.23;76.34;99232.70;1717563;78;20174;-91
2021/06/06 03:02:12;;;;;;;;;;;;;;;15.29;78.47;99232.44;1635686;82;20223;-91
2021/06/06 03:04:43;;;;;;;;;;;;;;;15.31;77.86;99226.67;1677624;82;20110;-93
2021/06/06 03:07:14;;;;;;;;;;;;;;;15.26;79.03;99225.16;1670096;80;20158;-92
2021/06/06 03:09:42;;;;;;;;;;;;;;;15.12;76.38;99210.05;1675701;81;20108;-92
2021/06/06 03:12:11;;;;;;;;;;;;;;;15.22;79.10;99228.39;1680568;84;20157;-92
2021/06/06 03:14:43;;;;;;;;;;;;;;;15.16;80.52;99209.44;1678253;81;20149;-94
2021/06/06 03:17:18;;;;;;;;;;;;;;;15.08;82.06;99209.77;1637455;83;20559;-92
2021/06/06 03:19:51;;;;;;;;;;;;;;;15.10;80.57;99212.73;1677259;80;20129;-91
2021/06/06 03:22:21;;;;;;;;;;;;;;;15.09;78.48;99223.27;1699107;80;20118;-93
2021/06/06 03:24:53;;;;;;;;;;;;;;;14.99;79.68;99231.11;1761984;80;20165;-88
2021/06/06 03:27:24;;;;;;;;;;;;;;;14.86;79.71;99238.59;1708838;80;20153;-92
2021/06/06 03:30:16;;;;;;;;;;;;;;;14.70;81.05;99240.53;1695936;81;20167;-90
2021/06/06 03:32:45;;;;;;;;;;;;;;;14.53;82.47;99243.77;1692110;82;20147;-88
2021/06/06 03:35:13;;;;;;;;;;;;;;;14.52;83.22;99251.23;1710780;82;20295;-92
2021/06/06 03:37:42;;;;;;;;;;;;;;;14.49;82.49;99250.49;1715690;80;20152;-93
2021/06/06 03:40:11;;;;;;;;;;;;;;;14.40;83.69;99248.22;1713701;82;20122;-93
2021/06/06 03:42:39;;;;;;;;;;;;;;;14.41;83.76;99250.78;1707318;83;20136;-92
2021/06/06 03:45:10;;;;;;;;;;;;;;;14.43;83.37;99228.50;1733827;80;20136;-93
2021/06/06 03:47:39;;;;;;;;;;;;;;;14.42;84.55;99202.77;1742728;78;20142;-93
2021/06/06 03:50:09;;;;;;;;;;;;;;;14.49;82.40;99208.17;1773623;80;20152;-94
2021/06/06 03:52:39;;;;;;;;;;;;;;;14.52;83.47;99205.88;1633341;78;20168;-91
2021/06/06 03:55:08;;;;;;;;;;;;;;;14.57;83.04;99213.60;1633196;86;20097;-87
2021/06/06 03:57:36;;;;;;;;;;;;;;;14.54;83.56;99214.52;1632983;86;20085;-87
2021/06/06 04:00:07;;;;;;;;;;;;;;;14.65;83.35;99218.08;1632764;86;20101;-88
2021/06/06 04:02:35;;;;;;;;;;;;;;;14.75;80.90;99231.18;1632005;88;20147;-88
2021/06/06 04:05:02;;;;;;;;;;;;;;;14.82;82.29;99237.88;1632697;86;20136;-87
2021/06/06 04:07:29;;;;;;;;;;;;;;;14.87;82.54;99229.38;1632577;87;20188;-87
2021/06/06 04:10:00;;;;;;;;;;;;;;;14.82;83.25;99227.41;1673315;83;20315;-92
2021/06/06 04:12:27;;;;;;;;;;;;;;;14.96;81.66;99220.31;1736539;80;20178;-91
2021/06/06 04:14:54;;;;;;;;;;;;;;;15.01;81.19;99216.19;1740346;82;20423;-92
2021/06/06 04:17:23;;;;;;;;;;;;;;;15.06;80.52;99212.91;1714144;83;20388;-87
2021/06/06 04:19:52;;;;;;;;;;;;;;;15.06;80.69;99217.70;1742823;81;20096;-88
2021/06/06 04:22:19;;;;;;;;;;;;;;;15.08;80.89;99216.30;1742859;83;20080;-88
2021/06/06 04:24:47;;;;;;;;;;;;;;;15.09;79.06;99216.25;1698704;81;20155;-92
2021/06/06 04:27:14;;;;;;;;;;;;;;;15.03;81.11;99211.73;1678908;81;20162;-93
2021/06/06 04:29:41;;;;;;;;;;;;;;;15.04;79.75;99209.49;1669657;85;20139;-92
2021/06/06 04:32:13;;;;;;;;;;;;;;;15.06;79.75;99205.05;1646788;86;20308;-93
2021/06/06 04:34:38;;;;;;;;;;;;;;;15.11;79.52;99202.63;1651629;81;20154;-93
2021/06/06 04:37:04;;;;;;;;;;;;;;;15.17;79.38;99200.22;1648523;85;20474;-93
2021/06/06 04:39:32;;;;;;;;;;;;;;;15.25;79.33;99200.74;1703511;82;20116;-93
2021/06/06 04:41:59;;;;;;;;;;;;;;;15.34;78.62;99199.95;1667102;82;20122;-93
2021/06/06 04:44:27;;;;;;;;;;;;;;;15.45;78.43;99196.42;1668791;82;20157;-92
2021/06/06 04:46:55;;;;;;;;;;;;;;;15.59;78.02;99194.51;1723548;79;20122;-91
2021/06/06 04:49:23;;;;;;;;;;;;;;;15.66;77.04;99188.94;1783091;79;20115;-90
2021/06/06 04:51:50;;;;;;;;;;;;;;;15.77;77.36;99199.42;1743792;82;20129;-87
2021/06/06 04:54:18;;;;;;;;;;;;;;;15.86;76.92;99201.65;1741638;81;20435;-92
2021/06/06 04:56:45;;;;;;;;;;;;;;;15.94;76.47;99195.59;1722534;81;20187;-92
2021/06/06 04:59:13;;;;;;;;;;;;;;;16.04;76.26;99197.34;1740639;79;20495;-91
2021/06/06 05:01:41;;;;;;;;;;;;;;;16.08;74.52;99193.19;1777648;80;20089;-89
2021/06/06 05:04:15;;;;;;;;;;;;;;;16.15;74.42;99187.19;1774587;80;20096;31
2021/06/06 05:06:42;;;;;;;;;;;;;;;16.25;73.04;99186.30;1758143;79;20167;-92
2021/06/06 05:09:11;;;;;;;;;;;;;;;16.29;73.60;99182.16;1772003;80;20179;-91
2021/06/06 05:11:39;;;;;;;;;;;;;;;16.29;72.58;99190.03;1765645;81;20099;-87
2021/06/06 05:14:06;;;;;;;;;;;;;;;16.30;72.35;99189.56;1750724;81;20148;-88
2021/06/06 05:16:34;;;;;;;;;;;;;;;16.31;71.67;99179.45;1735498;82;20141;-87
2021/06/06 05:19:01;;;;;;;;;;;;;;;16.34;71.75;99179.31;1735572;82;20133;-87
2021/06/06 05:21:32;;;;;;;;;;;;;;;16.35;71.71;99179.69;1736413;83;20093;-87
2021/06/06 05:24:00;;;;;;;;;;;;;;;16.39;70.45;99182.55;1735148;82;20168;-88
2021/06/06 05:26:27;;;;;;;;;;;;;;;16.43;70.98;99189.38;1735229;83;20074;-88
2021/06/06 05:28:53;;;;;;;;;;;;;;;16.44;70.86;99181.05;1735136;83;20124;-87
2021/06/06 05:31:21;;;;;;;;;;;;;;;16.49;70.92;99178.59;1735508;82;20124;-87
2021/06/06 05:33:48;;;;;;;;;;;;;;;16.60;70.72;99174.59;1739992;80;20119;-92
2021/06/06 05:36:17;;;;;;;;;;;;;;;16.70;70.98;99175.84;1749646;82;20151;-92
2021/06/06 05:38:44;;;;;;;;;;;;;;;16.80;70.12;99177.08;1762869;79;20127;-90
2021/06/06 05:41:10;;;;;;;;;;;;;;;16.93;69.29;99177.81;1775424;80;20144;-91
2021/06/06 05:43:37;;;;;;;;;;;;;;;17.03;69.13;99172.05;1766210;81;20075;-88
2021/06/06 05:46:04;;;;;;;;;;;;;;;17.18;69.20;99176.13;1766296;78;20138;-88
2021/06/06 05:48:30;;;;;;;;;;;;;;;17.30;69.47;99180.75;1766188;81;20091;-87
2021/06/06 05:50:59;;;;;;;;;;;;;;;17.42;69.35;99172.70;1766092;80;20075;-88
2021/06/06 05:53:42;;;;;;;;;;;;;;;17.55;69.45;99176.39;1764818;81;20155;-89
2021/06/06 05:56:10;;;;;;;;;;;;;;;17.68;68.38;99176.11;1765873;81;20138;-89
2021/06/06 05:58:37;;;;;;;;;;;;;;;17.72;71.20;99170.23;1766151;80;20146;-88
2021/06/06 06:01:04;;;;;;;;;;;;;;;17.78;68.92;99173.00;1766184;79;20149;-89
2021/06/06 06:03:30;;;;;;;;;;;;;;;17.85;70.50;99173.11;1766439;81;20127;-88
2021/06/06 06:09:17;;;;;;;;;;;;;;;17.95;68.85;99179.56;1766213;81;20071;-88
2021/06/06 06:11:43;;;;;;;;;;;;;;;18.00;68.15;99184.09;1766135;81;20101;-88
2021/06/06 06:14:10;;;;;;;;;;;;;;;18.04;68.47;99179.05;1766265;80;20082;-88
2021/06/06 06:16:37;;;;;;;;;;;;;;;18.04;67.54;99179.52;1766007;81;20113;-87
2021/06/06 06:19:09;;;;;;;;;;;;;;;17.99;69.56;99177.63;1738604;81;20126;-89
2021/06/06 06:21:38;;;;;;;;;;;;;;;18.00;69.59;99179.30;1766373;81;20213;-89
2021/06/06 06:24:05;;;;;;;;;;;;;;;18.03;69.20;99177.36;1766187;81;20150;-89
2021/06/06 06:26:32;;;;;;;;;;;;;;;18.02;68.08;99179.59;1791946;79;20075;-89
2021/06/06 06:29:00;;;;;;;;;;;;;;;17.99;68.75;99183.72;1764542;81;20099;-89
2021/06/06 06:31:35;;;;;;;;;;;;;;;18.03;68.58;99183.09;1751547;81;20141;-88
2021/06/06 06:34:04;;;;;;;;;;;;;;;18.07;67.39;99173.62;1765711;81;20059;-89
2021/06/06 06:36:31;;;;;;;;;;;;;;;18.11;68.36;99182.69;1765990;81;20178;-87
2021/06/06 06:42:00;;;;;;;;;;;;;;;18.16;69.75;99181.95;1681049;85;20120;-89
2021/06/06 06:44:28;;;;;;;;;;;;;;;18.25;70.16;99184.08;1680944;83;20104;-88
2021/06/06 06:46:56;;;;;;;;;;;;;;;18.35;70.76;99183.11;1671536;85;20163;-88
2021/06/06 06:49:24;;;;;;;;;;;;;;;18.27;69.68;99166.42;1680634;86;20123;-85
2021/06/06 06:51:50;;;;;;;;;;;;;;;18.37;69.18;99186.03;1677154;85;20435;-85
2021/06/06 06:54:16;;;;;;;;;;;;;;;18.49;69.42;99185.34;1679176;85;20131;-88
2021/06/06 06:56:43;;;;;;;;;;;;;;;18.52;69.85;99193.99;1680619;85;20107;-88
2021/06/06 06:59:09;;;;;;;;;;;;;;;18.60;69.59;99187.83;1680741;86;20129;-88
2021/06/06 07:01:35;;;;;;;;;;;;;;;18.64;68.22;99187.59;1680657;86;20158;-88
2021/06/06 07:04:02;;;;;;;;;;;;;;;18.64;67.28;99190.22;1680425;85;20104;-88
2021/06/06 07:06:28;;;;;;;;;;;;;;;18.70;67.82;99185.05;1680737;85;20147;-89
2021/06/06 07:08:55;;;;;;;;;;;;;;;18.80;68.60;99179.69;1661362;86;20156;-88
2021/06/06 07:11:22;;;;;;;;;;;;;;;18.92;67.51;99179.89;1667120;86;20163;-89
2021/06/06 07:13:49;;;;;;;;;;;;;;;19.03;67.01;99186.23;1681946;83;20125;-89
2021/06/06 07:16:17;;;;;;;;;;;;;;;19.07;63.93;99184.28;1682106;85;20124;-88
2021/06/06 07:18:43;;;;;;;;;;;;;;;19.15;65.55;99180.72;1680957;85;20159;-88
2021/06/06 07:21:17;;;;;;;;;;;;;;;19.13;64.76;99183.08;1680745;85;20115;-88
2021/06/06 07:23:45;;;;;;;;;;;;;;;19.17;65.92;99186.75;1671628;86;20141;-89
2021/06/06 07:26:19;;;;;;;;;;;;;;;19.27;65.46;99183.94;1668992;86;20169;-88
2021/06/06 07:28:46;;;;;;;;;;;;;;;19.25;62.56;99187.14;1654779;87;20165;-88
2021/06/06 07:31:15;;;;;;;;;;;;;;;19.34;62.94;99187.08;1654853;85;20138;-88
2021/06/06 07:33:43;;;;;;;;;;;;;;;19.40;62.47;99185.39;1691476;85;20107;-89
2021/06/06 07:36:13;;;;;;;;;;;;;;;19.42;62.60;99190.58;1690483;85;20139;-87
2021/06/06 07:38:40;;;;;;;;;;;;;;;19.48;62.42;99188.89;1680373;85;20112;-89
2021/06/06 07:41:07;;;;;;;;;;;;;;;19.61;63.31;99185.86;1680244;85;20120;-88
2021/06/06 07:43:34;;;;;;;;;;;;;;;19.65;61.33;99184.73;1678386;86;20192;-89
2021/06/06 07:46:02;;;;;;;;;;;;;;;19.70;60.81;99184.95;1668735;86;20179;-86
2021/06/06 07:48:29;;;;;;;;;;;;;;;19.75;61.53;99182.89;1669108;86;20096;-89
2021/06/06 07:50:56;;;;;;;;;;;;;;;19.75;60.01;99183.73;1669069;85;20151;-89
2021/06/06 07:53:22;;;;;;;;;;;;;;;19.79;60.96;99190.99;1680546;85;20084;-89
2021/06/06 07:55:51;;;;;;;;;;;;;;;19.87;61.43;99187.41;1681062;85;20096;-88
2021/06/06 07:58:21;;;;;;;;;;;;;;;19.85;61.71;99191.94;1672798;86;20177;-88
2021/06/06 08:00:48;;;;;;;;;;;;;;;19.85;61.67;99188.81;1667861;86;20202;-89
2021/06/06 08:03:15;;;;;;;;;;;;;;;19.85;61.43;99191.45;1679713;86;20153;-89
2021/06/06 08:05:43;;;;;;;;;;;;;;;19.81;61.01;99187.79;1680619;85;20172;-89
2021/06/06 08:08:13;;;;;;;;;;;;;;;19.90;60.05;99189.87;1680542;86;20159;-89
2021/06/06 08:10:43;;;;;;;;;;;;;;;19.94;60.48;99190.53;1680474;85;20155;-89
2021/06/06 08:13:09;;;;;;;;;;;;;;;20.05;60.95;99182.77;1660632;86;20123;-87
2021/06/06 08:15:36;;;;;;;;;;;;;;;20.14;60.13;99186.64;1680607;85;20104;-88
2021/06/06 08:18:07;;;;;;;;;;;;;;;20.21;60.28;99187.94;1680923;86;20112;-88
2021/06/06 08:20:43;;;;;;;;;;;;;;;20.28;60.35;99181.81;1680915;86;20132;-88
2021/06/06 08:23:10;;;;;;;;;;;;;;;20.39;59.63;99186.78;1680753;85;20088;-88
2021/06/06 08:25:37;;;;;;;;;;;;;;;20.39;59.13;99185.46;1680691;86;20176;-88
2021/06/06 08:28:07;;;;;;;;;;;;;;;20.48;59.02;99181.38;1664322;85;20167;-88
2021/06/06 08:30:40;;;;;;;;;;;;;;;20.59;58.58;99186.84;1691676;85;20107;-89
2021/06/06 08:33:08;;;;;;;;;;;;;;;20.74;59.72;99183.66;1691131;85;20116;-88
2021/06/06 08:35:34;;;;;;;;;;;;;;;20.90;58.85;99186.63;1691309;85;20191;-88
2021/06/06 08:38:01;;;;;;;;;;;;;;;20.93;58.91;99183.77;1691388;85;20167;-88
2021/06/06 08:40:37;;;;;;;;;;;;;;;20.79;58.19;99159.12;1695192;83;20249;-88
2021/06/06 08:43:06;;;;;;;;;;;;;;;20.95;58.16;99177.90;1716416;84;20128;-89
2021/06/06 08:45:48;;;;;;;;;;;;;;;21.00;58.99;99174.48;1716421;84;20136;-88
2021/06/06 08:48:18;;;;;;;;;;;;;;;21.10;58.72;99176.04;1699687;84;20111;-89
2021/06/06 08:50:51;;;;;;;;;;;;;;;21.25;59.19;99178.98;1695731;85;20119;-88
2021/06/06 08:53:29;;;;;;;;;;;;;;;21.43;58.93;99175.59;1696550;85;20148;-88
2021/06/06 08:56:17;;;;;;;;;;;;;;;21.64;58.54;99174.56;1692767;85;20148;-89
2021/06/06 08:59:12;;;;;;;;;;;;;;;21.79;57.90;99167.37;1671339;86;20161;-89
2021/06/06 09:01:56;;;;;;;;;;;;;;;21.93;58.14;99164.59;1685262;84;20157;-88
2021/06/06 09:04:26;;;;;;;;;;;;;;;22.04;57.05;99173.94;1721330;83;20189;-89
2021/06/06 09:06:59;;;;;;;;;;;;;;;21.89;54.45;99167.56;1703757;83;20115;-87
2021/06/06 09:09:32;;;;;;;;;;;;;;;21.93;55.82;99171.20;1695699;85;20199;-88
2021/06/06 09:12:04;;;;;;;;;;;;;;;22.04;55.82;99169.97;1696776;85;20115;-88
2021/06/06 09:14:30;;;;;;;;;;;;;;;22.13;54.63;99166.30;1676314;85;20119;-87
2021/06/06 09:17:09;;;;;;;;;;;;;;;22.19;55.50;99167.17;1695913;83;20119;-89
2021/06/06 09:19:51;;;;;;;;;;;;;;;22.24;52.77;99166.38;1702729;84;20265;-89
2021/06/06 09:22:40;;;;;;;;;;;;;;;22.30;54.33;99167.74;1719089;84;20141;-88
2021/06/06 09:25:12;;;;;;;;;;;;;;;22.40;55.05;99172.28;1669352;86;20128;-87
2021/06/06 09:27:40;;;;;;;;;;;;;;;22.53;53.89;99170.89;1687462;85;20119;-90
2021/06/06 09:30:16;;;;;;;;;;;;;;;22.56;54.64;99166.70;1697796;85;20144;-90
2021/06/06 09:32:43;;;;;;;;;;;;;;;22.72;54.60;99165.09;1697298;85;20115;-90
2021/06/06 09:35:27;;;;;;;;;;;;;;;22.84;53.13;99168.63;1697326;83;20135;-89
2021/06/06 09:38:18;;;;;;;;;;;;;;;22.86;51.14;99169.82;1697153;85;20142;-89
2021/06/06 09:40:47;;;;;;;;;;;;;;;22.94;52.34;99167.44;1698129;83;20185;-88
2021/06/06 09:43:31;;;;;;;;;;;;;;;22.90;52.43;99168.63;1701791;85;20175;-89
2021/06/06 09:46:16;;;;;;;;;;;;;;;23.07;52.52;99166.08;1702108;85;20107;-88
2021/06/06 09:48:44;;;;;;;;;;;;;;;23.02;48.91;99135.46;1705698;83;20157;-89
2021/06/06 09:51:19;;;;;;;;;;;;;;;23.16;50.01;99158.77;1719015;83;20105;-90
2021/06/06 09:53:45;;;;;;;;;;;;;;;23.31;51.52;99156.73;1714460;84;20241;-88
2021/06/06 09:56:28;;;;;;;;;;;;;;;23.50;51.76;99146.87;1700637;85;20103;-90
2021/06/06 09:59:13;;;;;;;;;;;;;;;23.71;51.07;99147.83;1700689;85;20103;-90
2021/06/06 10:02:03;;;;;;;;;;;;;;;23.75;48.32;99133.34;1701828;83;20146;-90
2021/06/06 10:04:32;;;;;;;;;;;;;;;23.96;51.22;99132.17;1701887;85;20123;-88
2021/06/06 10:07:16;;;;;;;;;;;;;;;24.17;50.51;99136.25;1702038;85;20083;-89
2021/06/06 10:09:51;;;;;;;;;;;;;;;24.30;48.78;99140.07;1682762;84;20151;-91
2021/06/06 10:12:27;;;;;;;;;;;;;;;24.28;47.07;99139.35;1677616;82;20101;-89
2021/06/06 10:15:12;;;;;;;;;;;;;;;24.34;47.42;99136.69;1696241;81;20226;-89
2021/06/06 10:17:43;;;;;;;;;;;;;;;24.57;49.42;99130.82;1696114;85;20100;-90
2021/06/06 10:20:16;;;;;;;;;;;;;;;24.60;47.28;99127.92;1695821;85;20103;-89
2021/06/06 10:22:46;;;;;;;;;;;;;;;24.73;46.81;99129.94;1694364;85;20131;-90
2021/06/06 10:25:16;;;;;;;;;;;;;;;24.57;44.55;99130.36;1695943;85;20123;-89
2021/06/06 10:27:46;;;;;;;;;;;;;;;24.86;48.37;99135.05;1694368;85;20136;-89
2021/06/06 10:30:19;;;;;;;;;;;;;;;24.97;46.95;99128.85;1693780;85;20151;-89
2021/06/06 10:32:46;;;;;;;;;;;;;;;25.01;47.67;99109.00;1674323;85;20167;-89
2021/06/06 10:35:16;;;;;;;;;;;;;;;25.36;46.68;99121.95;1693841;85;20171;-90
2021/06/06 10:37:45;;;;;;;;;;;;;;;25.58;41.71;99118.27;1697706;85;20183;-89
2021/06/06 10:40:32;;;;;;;;;;;;;;;25.77;44.46;99110.03;1699371;84;20135;-89
2021/06/06 10:43:08;;;;;;;;;;;;;;;25.50;42.98;99119.44;1700128;84;20151;-89
2021/06/06 10:45:47;;;;;;;;;;;;;;;25.37;42.67;99115.67;1682958;85;20100;-87
2021/06/06 10:48:23;;;;;;;;;;;;;;;25.43;43.69;99116.97;1697641;85;20132;-89
2021/06/06 10:50:52;;;;;;;;;;;;;;;25.34;41.34;99112.42;1701374;85;20162;-89
2021/06/06 10:53:23;;;;;;;;;;;;;;;25.50;43.85;99100.80;1702119;85;20138;-89
2021/06/06 10:56:09;;;;;;;;;;;;;;;25.70;43.62;99108.87;1701869;85;20146;-89
2021/06/06 10:58:51;;;;;;;;;;;;;;;25.74;41.72;99103.63;1701963;85;20209;-89
2021/06/06 11:01:21;;;;;;;;;;;;;;;25.87;43.42;99098.91;1702115;85;20114;-89
2021/06/06 11:03:50;;;;;;;;;;;;;;;26.05;43.62;99107.12;1701980;85;20150;-89
2021/06/06 11:06:28;;;;;;;;;;;;;;;25.89;40.34;99099.62;1701679;85;20159;-88
2021/06/06 11:08:56;;;;;;;;;;;;;;;26.04;41.38;99096.59;1675962;84;20157;-89
2021/06/06 11:11:30;;;;;;;;;;;;;;;26.05;41.85;99098.30;1678134;83;20193;-89
2021/06/06 11:14:13;;;;;;;;;;;;;;;26.24;40.31;99096.13;1727902;83;20144;-88
2021/06/06 11:16:42;;;;;;;;;;;;;;;26.39;39.91;99100.08;1722957;83;20102;-89
2021/06/06 11:19:20;;;;;;;;;;;;;;;26.52;41.45;99094.46;1717994;84;20172;-89
2021/06/06 11:21:59;;;;;;;;;;;;;;;26.64;40.86;99099.20;1713011;84;20123;-89
2021/06/06 11:24:44;;;;;;;;;;;;;;;26.55;40.02;99090.20;1698149;83;20134;-90
2021/06/06 11:27:17;;;;;;;;;;;;;;;26.64;40.10;99092.53;1703938;81;20101;-89
2021/06/06 11:33:00;;;;;;;;;;;;;;;27.33;40.15;99080.77;1704656;81;20136;-90
2021/06/06 11:35:33;;;;;;;;;;;;;;;27.41;40.59;99081.38;1701530;83;20192;-90
2021/06/06 11:38:18;;;;;;;;;;;;;;;26.87;37.26;99089.08;1701717;85;20108;-90
2021/06/06 11:40:47;;;;;;;;;;;;;;;26.85;37.16;99085.71;1700541;83;20204;-89
2021/06/06 11:43:23;;;;;;;;;;;;;;;26.67;38.19;99077.09;1683104;83;20159;-89
2021/06/06 11:45:52;;;;;;;;;;;;;;;26.45;39.06;99073.36;1726322;83;20167;-90
2021/06/06 11:48:30;;;;;;;;;;;;;;;26.29;39.94;99078.75;1705574;82;20088;-89
2021/06/06 11:50:58;;;;;;;;;;;;;;;26.37;40.73;99080.73;1701621;85;20151;-90
2021/06/06 11:53:42;;;;;;;;;;;;;;;26.31;40.14;99075.95;1701617;83;20155;-90
2021/06/06 11:56:14;;;;;;;;;;;;;;;26.21;40.09;99075.95;1701519;85;20092;-91
2021/06/06 11:58:44;;;;;;;;;;;;;;;26.08;40.39;99072.70;1697252;83;20174;-90
2021/06/06 12:01:17;;;;;;;;;;;;;;;25.89;39.56;99071.66;1641639;85;20153;-89
2021/06/06 12:03:46;;;;;;;;;;;;;;;25.73;39.84;99082.83;1648168;86;20167;-90
2021/06/06 12:06:28;;;;;;;;;;;;;;;25.65;40.27;99071.18;1714251;83;20106;-90
2021/06/06 12:08:57;;;;;;;;;;;;;;;25.50;40.31;99078.17;1701231;85;20186;-91
2021/06/06 12:11:27;;;;;;;;;;;;;;;25.39;41.21;99071.64;1701135;85;20127;-90
2021/06/06 12:13:57;;;;;;;;;;;;;;;25.33;41.97;99076.17;1683589;83;20167;-91
2021/06/06 12:16:28;;;;;;;;;;;;;;;25.23;41.93;99072.13;1670170;85;20153;-91
2021/06/06 12:19:09;;;;;;;;;;;;;;;25.09;41.96;99073.28;1673670;86;20157;-90
2021/06/06 12:21:38;;;;;;;;;;;;;;;25.05;42.62;99069.66;1686529;83;20185;-90
2021/06/06 12:24:24;;;;;;;;;;;;;;;24.93;42.17;99064.44;1726131;83;20124;-90
2021/06/06 12:26:56;;;;;;;;;;;;;;;24.74;41.32;99074.45;1701186;84;20138;-90
2021/06/06 12:29:26;;;;;;;;;;;;;;;24.60;41.92;99046.86;1700733;85;20139;-91
2021/06/06 12:31:52;;;;;;;;;;;;;;;24.72;41.86;99075.56;1701729;83;20182;-90
2021/06/06 12:34:27;;;;;;;;;;;;;;;24.61;41.10;99068.00;1702712;84;20135;-90
2021/06/06 12:36:59;;;;;;;;;;;;;;;24.58;41.01;99074.89;1702828;84;20129;-90
2021/06/06 12:39:27;;;;;;;;;;;;;;;24.44;43.42;99075.17;1702992;84;20179;-90
2021/06/06 12:41:55;;;;;;;;;;;;;;;24.33;45.27;99069.44;1703000;83;20134;-90
2021/06/06 12:44:25;;;;;;;;;;;;;;;23.81;47.26;99070.55;1702694;84;20199;-90
2021/06/06 12:46:54;;;;;;;;;;;;;;;23.36;49.96;99052.45;1702250;84;20147;-90
2021/06/06 12:49:34;;;;;;;;;;;;;;;23.25;50.62;99067.03;1702776;84;20147;-90
2021/06/06 12:52:07;;;;;;;;;;;;;;;22.97;53.14;99066.48;1682859;84;20081;-91
2021/06/06 12:54:38;;;;;;;;;;;;;;;22.84;53.67;99070.08;1700832;84;20140;-89
2021/06/06 12:57:08;;;;;;;;;;;;;;;22.83;52.24;99075.00;1702542;84;20151;-89
2021/06/06 12:59:35;;;;;;;;;;;;;;;22.75;51.54;99069.93;1701393;84;20112;-90
2021/06/06 13:02:11;;;;;;;;;;;;;;;22.47;51.87;99064.06;1674821;84;20143;-88
2021/06/06 13:04:39;;;;;;;;;;;;;;;22.27;50.47;99061.57;1701696;84;20155;-88
2021/06/06 13:07:18;;;;;;;;;;;;;;;22.25;49.99;99059.52;1702480;83;20171;-89
2021/06/06 13:09:47;;;;;;;;;;;;;;;22.28;51.16;99059.27;1702638;84;20132;-89
2021/06/06 13:12:37;;;;;;;;;;;;;;;22.35;51.01;99064.48;1702360;83;20103;-88
2021/06/06 13:15:14;;;;;;;;;;;;;;;22.54;50.40;99063.11;1702581;84;20147;-89
2021/06/06 13:17:50;;;;;;;;;;;;;;;22.69;49.62;99065.94;1702648;84;20176;-89
2021/06/06 13:20:32;;;;;;;;;;;;;;;22.74;48.19;99057.63;1702768;84;20187;-89
2021/06/06 13:23:14;;;;;;;;;;;;;;;23.37;47.01;99055.45;1674682;86;20142;-89